Thunder radar more information blitzortung!


Radar de pluja more information rain snow radar


Visita la nostra xarxa de llocs de meteo:

Template documentation
and downloads

And another site



No particular awareness of the weather is required.    There are no Weather-warnings

Pagina Historial Weather Underground text

Diari Resum Desembre 31, 2017 Unitats:  Mètric    Imperial   Tant
« Previous Dia
SegĂźent Dia »
Diari Setmana Mensual Anual Personalitzada
  Maxima: Minima: Media:
Temperatura: -17.8 °C -14.9 °C -10.9 °C
Punt de rosada: -17.8 °C -18.6 °C -15.4 °C
Humitat: Humidity % 51 % 58 %
Wind Speed: 0 km/h 0 km/h 12.6 km/h
RĂ fegues de vent: 0 km/h - -
Vent:- - WSW
Pression baro: 0 hPa 34361.1 hPa -
Precipitacions: 0 mm    
Historical Graphs
 
 
Dades de taula per Desembre 31, 2017
Temps Temperatura Punt de rosada Pression baro Vent Wind Speed RĂ fegues de vent Humitat Rainfall Rate (Hourly)
-17.8 °C -17.8 °C 0 hPa Calm     Humidity % 0 mm
00:04 -12.2 °C -15.4 °C 34669.3 hPa Calm     68 % 0 mm
00:05 -12.2 °C -15.4 °C 34669.3 hPa NW 4.2 km/h   67 % 0 mm
00:07 -12.3 °C -15.5 °C 34669.3 hPa NW 6 km/h 6 km/h 67 % 0 mm
00:15 -14.5 °C -16.6 °C 34601.5 hPa NNW 5.1 km/h 5.1 km/h 77 % 0 mm
00:25 -14.4 °C -16.5 °C 34601.5 hPa North 2.6 km/h 5.1 km/h 77 % 0 mm
00:35 -14.8 °C -16.9 °C 34567.7 hPa WNW 2.6 km/h 5.1 km/h 76 % 0 mm
00:45 -14.7 °C -16.6 °C 34567.7 hPa Calm     78 % 0 mm
00:55 -14.7 °C -16.6 °C 34567.7 hPa Calm   7.7 km/h 78 % 0 mm
01:05 -14.7 °C -16.6 °C 34567.7 hPa NNW 2.6 km/h 5.1 km/h 78 % 0 mm
01:15 -14.7 °C -16.7 °C 34567.7 hPa Calm   5.1 km/h 78 % 0 mm
01:25 -14.9 °C -16.8 °C 34567.7 hPa NW 2.6 km/h 5.1 km/h 78 % 0 mm
01:35 -14.8 °C -16.8 °C 34567.7 hPa Calm   2.6 km/h 78 % 0 mm
01:45 -14.8 °C -16.8 °C 34567.7 hPa Calm   5.1 km/h 78 % 0 mm
01:55 -14.9 °C -16.8 °C 34567.7 hPa NW 2.6 km/h 2.6 km/h 78 % 0 mm
02:05 -14.8 °C -16.7 °C 34567.7 hPa Calm   5.1 km/h 78 % 0 mm
02:15 -14.7 °C -16.6 °C 34567.7 hPa NW 2.6 km/h 7.7 km/h 79 % 0 mm
02:25 -14.6 °C -16.6 °C 34567.7 hPa Calm   7.7 km/h 78 % 0 mm
02:35 -14.6 °C -16.6 °C 34533.8 hPa Calm   2.6 km/h 78 % 0 mm
02:45 -14.5 °C -16.5 °C 34533.8 hPa NNW 2.6 km/h 5.1 km/h 78 % 0 mm
02:55 -14.4 °C -16.4 °C 34533.8 hPa WNW 2.6 km/h 2.6 km/h 78 % 0 mm
03:05 -14.6 °C -16.5 °C 34533.8 hPa Calm   5.1 km/h 78 % 0 mm
03:15 -14.5 °C -16.5 °C 34533.8 hPa Calm   2.6 km/h 78 % 0 mm
03:25 -14.3 °C -16.3 °C 34533.8 hPa Calm   7.7 km/h 78 % 0 mm
03:35 -14.1 °C -16.1 °C 34533.8 hPa Calm   5.1 km/h 78 % 0 mm
03:45 -14 °C -16 °C 34533.8 hPa Calm   2.6 km/h 78 % 0 mm
03:55 -13.8 °C -15.8 °C 34533.8 hPa Calm   2.6 km/h 78 % 0 mm
04:05 -13.3 °C -15.3 °C 34533.8 hPa Calm   5.1 km/h 78 % 0 mm
04:15 -13.1 °C -15.3 °C 34533.8 hPa SSW 2.6 km/h 5.1 km/h 76 % 0 mm
04:25 -13.1 °C -15.3 °C 34533.8 hPa Calm   2.6 km/h 76 % 0 mm
04:35 -13 °C -15.3 °C 34533.8 hPa Calm   2.6 km/h 75 % 0 mm
04:45 -12.6 °C -14.9 °C 34533.8 hPa Calm     75 % 0 mm
04:55 -12.1 °C -14.6 °C 34567.7 hPa Calm     74 % 0 mm
05:05 -11.8 °C -14.4 °C 34533.8 hPa Calm   2.6 km/h 73 % 0 mm
11:08 -12.2 °C -15.1 °C 34533.8 hPa ESE 6 km/h 6 km/h 70 % 0 mm
11:11 -12.1 °C -14.9 °C 34533.8 hPa SSE 6 km/h 6 km/h 71 % 0 mm
11:15 -12.1 °C -14.9 °C 34533.8 hPa ESE 3.1 km/h   71 % 0 mm
11:19 -12 °C -14.7 °C 34533.8 hPa SSE 6 km/h 6 km/h 72 % 0 mm
11:21 -12 °C -14.8 °C 34533.8 hPa SSE 6 km/h 6.3 km/h 71 % 0 mm
11:26 -12 °C -14.8 °C 34533.8 hPa SE 4.2 km/h 4.2 km/h 71 % 0 mm
11:27 -12 °C -14.8 °C 34533.8 hPa SSE 6 km/h 6 km/h 71 % 0 mm
11:32 -11.9 °C -14.8 °C 34533.8 hPa East 6 km/h 6 km/h 71 % 0 mm
11:35 -11.9 °C -14.8 °C 34533.8 hPa ESE 6.3 km/h 6.3 km/h 71 % 0 mm
11:37 -12 °C -14.8 °C 34533.8 hPa ESE 6 km/h 6 km/h 71 % 0 mm
11:40 -12 °C -14.8 °C 34533.8 hPa ESE 6 km/h 6 km/h 71 % 0 mm
11:43 -11.9 °C -14.8 °C 34533.8 hPa East 6 km/h 6 km/h 71 % 0 mm
11:48 -12 °C -14.8 °C 34533.8 hPa NE 6 km/h 6 km/h 71 % 0 mm
11:49 -12 °C -14.8 °C 34533.8 hPa NE 3.1 km/h 3.1 km/h 71 % 0 mm
11:54 -11.9 °C -14.8 °C 34533.8 hPa East 6 km/h 6 km/h 71 % 0 mm
11:55 -11.9 °C -14.7 °C 34533.8 hPa East 2.6 km/h 5.1 km/h 71 % 0 mm
12:00 -11.9 °C -14.7 °C 34533.8 hPa ENE 3.1 km/h 3.1 km/h 71 % 0 mm
12:04 -11.8 °C -14.6 °C 34533.8 hPa NNE 6 km/h 6 km/h 71 % 0 mm
12:07 -11.7 °C -14.6 °C 34533.8 hPa NE 6 km/h   71 % 0 mm
12:12 -11.6 °C -14.4 °C 34533.8 hPa NE 6 km/h 6 km/h 71 % 0 mm
12:13 -11.6 °C -14.4 °C 34533.8 hPa NE 6 km/h 6 km/h 71 % 0 mm
12:18 -11.4 °C -14.2 °C 34533.8 hPa East 6.3 km/h 6.3 km/h 71 % 0 mm
12:20 -11.4 °C -14.2 °C 34533.8 hPa ENE 2.6 km/h 5.1 km/h 71 % 0 mm
12:25 -11.4 °C -14.3 °C 34496.6 hPa ESE 7.6 km/h 7.6 km/h 70 % 0 mm
12:30 -11.2 °C -14.2 °C 34496.6 hPa ENE 6 km/h 6 km/h 70 % 0 mm
12:34 -11.2 °C -14.3 °C 34496.6 hPa SE 7.6 km/h 7.6 km/h 69 % 0 mm
12:35 -11.2 °C -14.3 °C 34496.6 hPa ESE 6.3 km/h 6.3 km/h 69 % 0 mm
12:40 -11.1 °C -14.2 °C 34496.6 hPa SSE 6 km/h 6 km/h 69 % 0 mm
12:43 -10.9 °C -13.9 °C 34496.6 hPa South 5.6 km/h 5.6 km/h 69 % 0 mm
12:48 -10.7 °C -13.7 °C 34496.6 hPa WNW 3.1 km/h 3.7 km/h 69 % 0 mm
12:49 -10.7 °C -13.7 °C 34496.6 hPa WNW 3.1 km/h 3.7 km/h 69 % 0 mm
12:54 -9.9 °C -13.3 °C 34496.6 hPa SW 15 km/h 15 km/h 67 % 0 mm
12:59 -9.6 °C -13.1 °C 34496.6 hPa WSW 15.3 km/h 15.3 km/h 66 % 0 mm
13:01 -9.4 °C -13.1 °C 34496.6 hPa NW 15 km/h 15 km/h 65 % 0 mm
13:04 -9.3 °C -13.1 °C 34496.6 hPa NW 17.9 km/h 17.9 km/h 64 % 0 mm
13:06 -9.3 °C -13.2 °C 34496.6 hPa West 15 km/h 15 km/h 63 % 0 mm
13:11 -9.3 °C -13.2 °C 34462.7 hPa West 11.1 km/h 11.1 km/h 63 % 0 mm
13:12 -9.3 °C -13.4 °C 34462.7 hPa WSW 20.9 km/h 20.9 km/h 62 % 0 mm
13:17 -9.3 °C -13.5 °C 34462.7 hPa WNW 11.9 km/h 11.9 km/h 61 % 0 mm
13:19 -9.3 °C -13.4 °C 34462.7 hPa West 9 km/h 10.3 km/h 61 % 0 mm
13:22 -9.3 °C -13.4 °C 34462.7 hPa WSW 9 km/h 9 km/h 61 % 0 mm
13:25 -9.3 °C -13.4 °C 34462.7 hPa SW 9 km/h 9 km/h 61 % 0 mm
13:27 -9.3 °C -13.4 °C 34462.7 hPa West 20.9 km/h 20.9 km/h 61 % 0 mm
13:32 -9.2 °C -13.5 °C 34462.7 hPa WSW 15 km/h 15 km/h 60 % 0 mm
13:33 -9.2 °C -13.7 °C 34462.7 hPa West 7.6 km/h 7.6 km/h 59 % 0 mm
13:38 -9.2 °C -13.6 °C 34462.7 hPa West 20.9 km/h 20.9 km/h 59 % 0 mm
13:39 -9.2 °C -13.6 °C 34462.7 hPa West 20.9 km/h 20.9 km/h 59 % 0 mm
13:44 -9.1 °C -13.6 °C 34462.7 hPa WSW 17.9 km/h 17.9 km/h 59 % 0 mm
13:49 -9.1 °C -13.7 °C 34462.7 hPa WSW 15.6 km/h 15.6 km/h 58 % 0 mm
13:50 -9.2 °C -13.9 °C 34462.7 hPa WNW 17.9 km/h 17.9 km/h 57 % 0 mm
13:54 -9.1 °C -13.8 °C 34428.8 hPa WSW 15 km/h 15 km/h 57 % 0 mm
13:56 -9.1 °C -13.8 °C 34428.8 hPa West 6.8 km/h 7.6 km/h 57 % 0 mm
14:00 -9 °C -13.7 °C 34428.8 hPa West 30.6 km/h 30.6 km/h 57 % 0 mm
14:05 -8.9 °C -13.6 °C 34428.8 hPa WNW 17.9 km/h 17.9 km/h 57 % 0 mm
14:06 -8.9 °C -13.8 °C 34428.8 hPa West 17.9 km/h 17.9 km/h 56 % 0 mm
14:11 -8.9 °C -13.8 °C 34395 hPa West 15 km/h 15 km/h 56 % 0 mm
14:13 -8.9 °C -13.8 °C 34395 hPa NNW 17.9 km/h 17.9 km/h 56 % 0 mm
14:16 -8.9 °C -13.9 °C 34395 hPa NW 15 km/h 15 km/h 55 % 0 mm
14:21 -8.8 °C -13.7 °C 34395 hPa West 11.9 km/h 11.9 km/h 56 % 0 mm
14:26 -8.7 °C -13.8 °C 34395 hPa WSW 12.7 km/h 12.7 km/h 55 % 0 mm
14:27 -8.7 °C -13.8 °C 34395 hPa WSW 12.7 km/h 12.7 km/h 55 % 0 mm
14:30 -8.7 °C -13.9 °C 34395 hPa WSW 7.7 km/h 25.9 km/h 54 % 0 mm
14:35 -8.7 °C -13.8 °C 34395 hPa SW 17.9 km/h 17.9 km/h 54 % 0 mm
14:36 -8.7 °C -13.8 °C 34395 hPa SW 11.9 km/h 11.9 km/h 54 % 0 mm
14:37 -8.7 °C -13.8 °C 34395 hPa West 11.9 km/h 11.9 km/h 54 % 0 mm
14:42 -8.8 °C -14 °C 34395 hPa WSW 34.1 km/h 34.1 km/h 54 % 0 mm
14:44 -8.8 °C -14.2 °C 34395 hPa WSW 18.3 km/h 18.3 km/h 53 % 0 mm
14:49 -8.8 °C -14.2 °C 34395 hPa WSW 26.9 km/h 26.9 km/h 53 % 0 mm
14:50 -8.8 °C -14.2 °C 34395 hPa SW 29.8 km/h 29.8 km/h 53 % 0 mm
14:54 -8.8 °C -14.2 °C 34428.8 hPa West 11.9 km/h 11.9 km/h 53 % 0 mm
14:58 -8.8 °C -14.1 °C 34428.8 hPa WNW 20.9 km/h 20.9 km/h 53 % 0 mm
15:03 -8.7 °C -14.2 °C 34428.8 hPa West 29.8 km/h 29.8 km/h 52 % 0 mm
15:08 -8.8 °C -14.3 °C 34428.8 hPa SW 38.8 km/h 38.8 km/h 52 % 0 mm
15:09 -8.9 °C -14.6 °C 34428.8 hPa WNW 26.9 km/h 26.9 km/h 51 % 0 mm
15:13 -8.9 °C -14.4 °C 34428.8 hPa SW 20.9 km/h 20.9 km/h 52 % 0 mm
15:18 -9 °C -14.5 °C 34428.8 hPa WSW 15 km/h 15 km/h 52 % 0 mm
15:23 -9.1 °C -14.6 °C 34428.8 hPa WNW 17.9 km/h 17.9 km/h 52 % 0 mm
15:24 -9.1 °C -14.6 °C 34428.8 hPa West 6.8 km/h 6.8 km/h 52 % 0 mm
15:29 -9.1 °C -14.6 °C 34428.8 hPa WSW 11.9 km/h 11.9 km/h 52 % 0 mm
15:31 -9.1 °C -14.6 °C 34428.8 hPa WSW 11.9 km/h 11.9 km/h 52 % 0 mm
15:36 -9.2 °C -14.7 °C 34428.8 hPa WNW 15 km/h 15 km/h 52 % 0 mm
15:41 -9.2 °C -14.7 °C 34428.8 hPa West 25.4 km/h 25.4 km/h 52 % 0 mm
15:42 -9.2 °C -14.7 °C 34428.8 hPa West 23.8 km/h 23.8 km/h 52 % 0 mm
15:47 -9.2 °C -14.7 °C 34428.8 hPa NW 20.9 km/h 20.9 km/h 52 % 0 mm
15:49 -9.2 °C -14.7 °C 34428.8 hPa West 26.9 km/h 26.9 km/h 52 % 0 mm
15:52 -9.2 °C -14.7 °C 34395 hPa WSW 32.8 km/h 32.8 km/h 52 % 0 mm
15:56 -9.3 °C -14.7 °C 34395 hPa West 17.9 km/h 17.9 km/h 52 % 0 mm
15:58 -9.3 °C -14.7 °C 34395 hPa WSW 11.9 km/h 11.9 km/h 52 % 0 mm
16:03 -9.3 °C -14.8 °C 34395 hPa WSW 15 km/h 15 km/h 52 % 0 mm
16:04 -9.3 °C -14.8 °C 34395 hPa WSW 11.9 km/h 11.9 km/h 52 % 0 mm
16:09 -9.4 °C -14.8 °C 34395 hPa WNW 9 km/h 9 km/h 52 % 0 mm
16:10 -9.4 °C -14.8 °C 34395 hPa WNW 14.5 km/h 14.5 km/h 52 % 0 mm
16:15 -9.4 °C -14.9 °C 34395 hPa WSW 9 km/h 9 km/h 52 % 0 mm
16:20 -9.5 °C -14.9 °C 34395 hPa WNW 6 km/h 6.3 km/h 52 % 0 mm
16:23 -9.6 °C -14.9 °C 34428.8 hPa WNW 11.1 km/h 11.1 km/h 52 % 0 mm
16:26 -9.6 °C -14.9 °C 34428.8 hPa West 15 km/h 15 km/h 52 % 0 mm
16:30 -9.6 °C -15.1 °C 34428.8 hPa SW 26.9 km/h 26.9 km/h 52 % 0 mm
16:31 -9.7 °C -15.1 °C 34428.8 hPa SW 11.9 km/h 11.9 km/h 52 % 0 mm
16:36 -9.7 °C -15.1 °C 34428.8 hPa SW 12.7 km/h 14 km/h 52 % 0 mm
16:37 -9.7 °C -15.1 °C 34428.8 hPa SW 12.7 km/h 14 km/h 52 % 0 mm
16:41 -9.8 °C -15.2 °C 34395 hPa West 9 km/h 9.3 km/h 52 % 0 mm
16:42 -9.8 °C -15.2 °C 34395 hPa West 11.9 km/h 11.9 km/h 52 % 0 mm
16:47 -9.8 °C -15.2 °C 34395 hPa West 11.9 km/h 11.9 km/h 52 % 0 mm
16:52 -9.9 °C -15.3 °C 34395 hPa West 11.9 km/h 11.9 km/h 52 % 0 mm
16:53 -9.9 °C -15.3 °C 34395 hPa WSW 11.9 km/h 11.9 km/h 52 % 0 mm
16:54 -9.9 °C -15.3 °C 34395 hPa West 11.9 km/h 11.9 km/h 52 % 0 mm
16:59 -10 °C -15.4 °C 34395 hPa WSW 9 km/h 9 km/h 52 % 0 mm
17:01 -10.1 °C -15.4 °C 34395 hPa SW 11.9 km/h 11.9 km/h 52 % 0 mm
17:03 -10.1 °C -15.3 °C 34395 hPa WSW 9 km/h 9 km/h 53 % 0 mm
17:08 -10.2 °C -15.4 °C 34395 hPa WSW 15 km/h 15 km/h 53 % 0 mm
17:09 -10.2 °C -15.4 °C 34395 hPa SW 12.7 km/h 12.7 km/h 53 % 0 mm
17:14 -10.3 °C -15.6 °C 34395 hPa WSW 15 km/h 15 km/h 53 % 0 mm
17:15 -10.3 °C -15.6 °C 34395 hPa WSW 15 km/h 15 km/h 53 % 0 mm
17:20 -10.3 °C -15.6 °C 34395 hPa SW 17.9 km/h 17.9 km/h 53 % 0 mm
17:24 -10.4 °C -15.6 °C 34395 hPa West 17.9 km/h 17.9 km/h 53 % 0 mm
17:27 -10.5 °C -15.7 °C 34395 hPa SW 9 km/h 9 km/h 53 % 0 mm
17:29 -10.6 °C -15.8 °C 34395 hPa SSW 18.3 km/h 18.3 km/h 53 % 0 mm
17:34 -10.6 °C -15.8 °C 34395 hPa West 20.9 km/h 20.9 km/h 53 % 0 mm
17:39 -10.7 °C -15.9 °C 34395 hPa WNW 11.9 km/h 11.9 km/h 53 % 0 mm
17:41 -10.7 °C -15.9 °C 34395 hPa WNW 11.9 km/h 11.9 km/h 53 % 0 mm
17:42 -10.7 °C -15.9 °C 34395 hPa WSW 11.9 km/h 11.9 km/h 53 % 0 mm
17:46 -10.7 °C -15.9 °C 34395 hPa SW 15 km/h 15 km/h 53 % 0 mm
17:51 -10.8 °C -16 °C 34395 hPa West 20.9 km/h 20.9 km/h 53 % 0 mm
17:52 -10.8 °C -16 °C 34395 hPa West 9.8 km/h 9.8 km/h 53 % 0 mm
17:57 -10.9 °C -15.9 °C 34395 hPa WSW 12.7 km/h 12.7 km/h 54 % 0 mm
18:00 -10.9 °C -15.9 °C 34395 hPa SW 15 km/h 15.3 km/h 54 % 0 mm
18:05 -10.9 °C -16 °C 34395 hPa WSW 9 km/h 9 km/h 54 % 0 mm
18:09 -10.9 °C -16 °C 34395 hPa WSW 11.9 km/h 11.9 km/h 54 % 0 mm
18:11 -11 °C -16 °C 34395 hPa WSW 9 km/h 9 km/h 54 % 0 mm
18:16 -11 °C -16 °C 34395 hPa SW 9 km/h 9 km/h 54 % 0 mm
18:20 -11 °C -16 °C 34395 hPa ESE 3.1 km/h 3.1 km/h 54 % 0 mm
18:21 -11 °C -16 °C 34395 hPa SW 6 km/h 6 km/h 54 % 0 mm
18:25 -11.1 °C -16.1 °C 34361.1 hPa SW 9 km/h 9 km/h 54 % 0 mm
18:28 -11.1 °C -16.1 °C 34361.1 hPa WSW 17.9 km/h 17.9 km/h 54 % 0 mm
18:29 -11.1 °C -16.1 °C 34361.1 hPa WSW 17.9 km/h 17.9 km/h 54 % 0 mm
18:34 -11 °C -16 °C 34361.1 hPa WSW 15 km/h 15 km/h 54 % 0 mm
18:35 -11 °C -16 °C 34361.1 hPa West 16.1 km/h 16.1 km/h 54 % 0 mm
18:39 -10.9 °C -16 °C 34395 hPa West 15 km/h 15 km/h 54 % 0 mm
18:42 -10.8 °C -15.9 °C 34395 hPa West 20.9 km/h 20.9 km/h 54 % 0 mm
18:45 -11.3 °C -16.2 °C 34462.7 hPa WSW 7.7 km/h 10.3 km/h 55 % 0 mm
18:47 -10.8 °C -15.9 °C 34395 hPa WSW 11.1 km/h 11.1 km/h 54 % 0 mm
18:49 -10.8 °C -15.9 °C 34395 hPa WSW 7.6 km/h 7.6 km/h 54 % 0 mm
18:54 -10.9 °C -15.9 °C 34395 hPa WNW 10.3 km/h 10.3 km/h 54 % 0 mm
18:55 -11.4 °C -16.2 °C 34462.7 hPa WSW 5.1 km/h 7.7 km/h 55 % 0 mm
18:59 -10.8 °C -15.9 °C 34395 hPa West 15 km/h 15 km/h 54 % 0 mm
19:02 -10.8 °C -15.9 °C 34395 hPa WNW 15 km/h 15 km/h 54 % 0 mm
19:05 -10.8 °C -15.9 °C 34395 hPa West 19.2 km/h 19.2 km/h 54 % 0 mm
19:10 -10.8 °C -15.8 °C 34395 hPa WSW 15.3 km/h 15.3 km/h 54 % 0 mm
19:11 -10.8 °C -15.8 °C 34395 hPa WSW 16.1 km/h 16.1 km/h 54 % 0 mm
19:15 -11.7 °C -16.7 °C 34462.7 hPa West 7.7 km/h 10.3 km/h 54 % 0 mm
19:16 -10.8 °C -15.8 °C 34395 hPa WNW 23.8 km/h 23.8 km/h 54 % 0 mm
19:21 -10.8 °C -15.8 °C 34395 hPa West 15.3 km/h 16.1 km/h 54 % 0 mm
19:22 -10.8 °C -15.8 °C 34395 hPa WSW 23.8 km/h 23.8 km/h 54 % 0 mm
19:23 -10.8 °C -15.8 °C 34395 hPa West 17.9 km/h 17.9 km/h 54 % 0 mm
19:25 -11.9 °C -17.1 °C 34428.8 hPa West 20.8 km/h 31.1 km/h 53 % 0 mm
19:28 -10.7 °C -15.8 °C 34395 hPa WNW 17.9 km/h 18.3 km/h 54 % 0 mm
19:29 -10.7 °C -15.8 °C 34395 hPa WSW 29.8 km/h 29.8 km/h 54 % 0 mm
19:32 -10.7 °C -15.9 °C 34395 hPa WSW 26.9 km/h 26.9 km/h 53 % 0 mm
19:35 -12.2 °C -17.3 °C 34428.8 hPa WSW 12.9 km/h 20.8 km/h 53 % 0 mm
19:37 -10.7 °C -15.9 °C 34395 hPa West 15 km/h 15 km/h 53 % 0 mm
19:38 -10.7 °C -15.9 °C 34395 hPa West 15 km/h 15 km/h 53 % 0 mm
19:43 -10.7 °C -15.9 °C 34395 hPa WSW 14 km/h 14 km/h 53 % 0 mm
19:44 -10.7 °C -15.9 °C 34395 hPa WSW 20.9 km/h 20.9 km/h 53 % 0 mm
19:45 -12.4 °C -17.6 °C 34428.8 hPa WSW 12.9 km/h 25.9 km/h 52 % 0 mm
19:46 -10.7 °C -15.9 °C 34395 hPa West 23.8 km/h 23.8 km/h 53 % 0 mm
19:51 -10.7 °C -15.9 °C 34395 hPa WSW 16.1 km/h 16.1 km/h 53 % 0 mm
19:55 -12.6 °C -17.8 °C 34462.7 hPa WSW 7.7 km/h 23.3 km/h 52 % 0 mm
19:56 -10.7 °C -15.9 °C 34395 hPa WSW 15 km/h 15 km/h 53 % 0 mm
19:57 -10.7 °C -15.9 °C 34395 hPa WNW 17.9 km/h 17.9 km/h 53 % 0 mm
20:02 -10.7 °C -15.9 °C 34395 hPa WNW 20.9 km/h 20.9 km/h 53 % 0 mm
20:04 -10.7 °C -15.9 °C 34395 hPa West 20.9 km/h 20.9 km/h 53 % 0 mm
20:05 -12.7 °C -17.9 °C 34496.6 hPa West 7.7 km/h 20.8 km/h 52 % 0 mm
20:08 -10.7 °C -15.9 °C 34395 hPa West 23.8 km/h 23.8 km/h 53 % 0 mm
20:10 -10.7 °C -15.9 °C 34395 hPa NNW 15 km/h 15 km/h 53 % 0 mm
20:15 -10.7 °C -15.9 °C 34395 hPa West 15 km/h 15 km/h 53 % 0 mm
20:16 -10.7 °C -15.9 °C 34395 hPa West 15 km/h 15 km/h 53 % 0 mm
20:21 -10.7 °C -15.9 °C 34395 hPa West 20.9 km/h 20.9 km/h 53 % 0 mm
20:22 -10.7 °C -15.9 °C 34395 hPa WNW 20.9 km/h 20.9 km/h 53 % 0 mm
20:25 -12.8 °C -18 °C 34496.6 hPa WNW 7.7 km/h 10.3 km/h 52 % 0 mm
20:27 -10.7 °C -15.9 °C 34395 hPa SW 20.9 km/h 20.9 km/h 53 % 0 mm
20:28 -10.6 °C -15.8 °C 34395 hPa SW 20.9 km/h 20.9 km/h 53 % 0 mm
20:29 -10.6 °C -15.8 °C 34395 hPa WNW 20.9 km/h 20.9 km/h 53 % 0 mm
20:34 -10.7 °C -15.9 °C 34395 hPa West 15 km/h 15 km/h 53 % 0 mm
20:35 -10.7 °C -15.9 °C 34395 hPa SW 11.9 km/h 11.9 km/h 53 % 0 mm
20:40 -10.6 °C -15.8 °C 34395 hPa WSW 9 km/h 9 km/h 53 % 0 mm
20:42 -10.6 °C -15.8 °C 34395 hPa West 15 km/h 15 km/h 53 % 0 mm
20:43 -10.6 °C -15.8 °C 34395 hPa WSW 15 km/h 15 km/h 53 % 0 mm
20:45 -12.9 °C -18.1 °C 34496.6 hPa WNW 7.7 km/h 15.6 km/h 52 % 0 mm
20:47 -10.6 °C -15.8 °C 34395 hPa WSW 9.3 km/h 9.3 km/h 53 % 0 mm
20:52 -10.6 °C -15.8 °C 34395 hPa WSW 9 km/h 9 km/h 53 % 0 mm
20:53 -10.6 °C -15.8 °C 34395 hPa WSW 9 km/h 9 km/h 53 % 0 mm
20:54 -10.6 °C -15.8 °C 34395 hPa WSW 9 km/h 9 km/h 53 % 0 mm
20:55 -13 °C -18.2 °C 34533.8 hPa West 7.7 km/h 12.9 km/h 52 % 0 mm
20:59 -10.6 °C -15.8 °C 34395 hPa WSW 9 km/h 9 km/h 53 % 0 mm
21:03 -10.6 °C -15.8 °C 34395 hPa WSW 9 km/h 9 km/h 53 % 0 mm
21:04 -10.6 °C -15.8 °C 34395 hPa NW 9 km/h 9 km/h 53 % 0 mm
21:05 -13.1 °C -18.2 °C 34533.8 hPa West 18.2 km/h 18.2 km/h 52 % 0 mm
21:09 -10.6 °C -15.8 °C 34395 hPa West 15 km/h 15 km/h 53 % 0 mm
21:14 -10.6 °C -15.8 °C 34395 hPa WSW 15 km/h 15 km/h 53 % 0 mm
21:15 -10.6 °C -15.8 °C 34395 hPa WNW 11.9 km/h 11.9 km/h 53 % 0 mm
21:16 -10.6 °C -15.8 °C 34395 hPa WNW 12.2 km/h 12.2 km/h 53 % 0 mm
21:21 -10.6 °C -15.8 °C 34395 hPa WSW 14 km/h 14 km/h 53 % 0 mm
21:22 -10.6 °C -15.8 °C 34395 hPa West 15 km/h 15 km/h 53 % 0 mm
21:25 -13.1 °C -18.2 °C 34533.8 hPa West 12.9 km/h 20.8 km/h 52 % 0 mm
21:27 -10.5 °C -15.7 °C 34395 hPa West 15 km/h 15 km/h 53 % 0 mm
21:32 -10.5 °C -15.9 °C 34395 hPa WSW 17.9 km/h 17.9 km/h 52 % 0 mm
21:35 -10.4 °C -15.8 °C 34395 hPa West 15 km/h 15 km/h 52 % 0 mm
21:37 -10.4 °C -15.7 °C 34395 hPa WNW 23.8 km/h 23.8 km/h 52 % 0 mm
21:42 -10.3 °C -15.7 °C 34395 hPa West 15 km/h 15 km/h 52 % 0 mm
21:43 -10.3 °C -15.7 °C 34395 hPa West 15 km/h 15 km/h 52 % 0 mm
21:45 -13.2 °C -18.3 °C 34533.8 hPa WSW 18.2 km/h 20.8 km/h 52 % 0 mm
21:46 -10.4 °C -15.7 °C 34395 hPa SW 17.9 km/h 17.9 km/h 52 % 0 mm
21:51 -10.3 °C -15.7 °C 34395 hPa WNW 20.9 km/h 20.9 km/h 52 % 0 mm
21:52 -10.3 °C -15.7 °C 34395 hPa West 20.9 km/h 20.9 km/h 52 % 0 mm
21:55 -13.2 °C -18.4 °C 34567.7 hPa WSW 15.6 km/h 28.5 km/h 52 % 0 mm
21:57 -10.3 °C -15.7 °C 34395 hPa West 15 km/h 15 km/h 52 % 0 mm
21:59 -10.4 °C -15.7 °C 34395 hPa WSW 11.9 km/h 11.9 km/h 52 % 0 mm
22:02 -10.4 °C -15.7 °C 34395 hPa NNW 16.1 km/h 16.1 km/h 52 % 0 mm
22:05 -10.4 °C -15.7 °C 34395 hPa West 29.8 km/h 29.8 km/h 52 % 0 mm
22:10 -10.4 °C -15.7 °C 34395 hPa West 15 km/h 15 km/h 52 % 0 mm
22:12 -10.4 °C -15.7 °C 34395 hPa WSW 23.8 km/h 23.8 km/h 52 % 0 mm
22:15 -13.3 °C -18.4 °C 34567.7 hPa West 20.8 km/h 23.3 km/h 52 % 0 mm
22:17 -10.4 °C -15.7 °C 34395 hPa WNW 32.8 km/h 32.8 km/h 52 % 0 mm
22:20 -10.4 °C -15.8 °C 34395 hPa WSW 15 km/h 15 km/h 52 % 0 mm
22:21 -10.4 °C -15.8 °C 34395 hPa WNW 32.8 km/h 32.8 km/h 52 % 0 mm
22:25 -13.3 °C -18.5 °C 34567.7 hPa West 20.8 km/h 23.3 km/h 52 % 0 mm
22:26 -10.4 °C -15.8 °C 34428.8 hPa SW 17.9 km/h 17.9 km/h 52 % 0 mm
22:28 -10.5 °C -15.9 °C 34428.8 hPa WNW 11.1 km/h 11.1 km/h 52 % 0 mm
22:32 -10.5 °C -15.9 °C 34428.8 hPa WSW 15.3 km/h 15.3 km/h 52 % 0 mm
22:33 -10.5 °C -15.9 °C 34428.8 hPa SW 15.3 km/h 15.3 km/h 52 % 0 mm
22:35 -13.3 °C -18.5 °C 34601.5 hPa West 18.2 km/h 25.9 km/h 52 % 0 mm
22:38 -10.6 °C -15.9 °C 34428.8 hPa WSW 19.2 km/h 19.2 km/h 52 % 0 mm
22:39 -10.6 °C -15.9 °C 34428.8 hPa WNW 23.8 km/h 23.8 km/h 52 % 0 mm
22:41 -10.6 °C -15.9 °C 34428.8 hPa WNW 9 km/h 9 km/h 52 % 0 mm
22:45 -13.3 °C -18.5 °C 34601.5 hPa West 18.2 km/h 20.8 km/h 52 % 0 mm
22:46 -10.6 °C -15.9 °C 34428.8 hPa West 15.3 km/h 15.3 km/h 52 % 0 mm
22:47 -10.6 °C -15.9 °C 34428.8 hPa WSW 17.4 km/h 17.4 km/h 52 % 0 mm
22:52 -10.6 °C -15.8 °C 34428.8 hPa WNW 15 km/h 15 km/h 53 % 0 mm
22:53 -10.6 °C -15.8 °C 34428.8 hPa West 20.9 km/h 20.9 km/h 53 % 0 mm
22:55 -10.6 °C -15.8 °C 34428.8 hPa West 12.9 km/h 20.8 km/h 53 % 0 mm
22:59 -10.6 °C -15.8 °C 34428.8 hPa WSW 12.7 km/h 12.7 km/h 53 % 0 mm
23:04 -10.7 °C -15.9 °C 34428.8 hPa WSW 12.7 km/h 12.7 km/h 53 % 0 mm
23:05 -10.7 °C -15.9 °C 34428.8 hPa SW 15 km/h 15 km/h 53 % 0 mm
23:10 -10.7 °C -15.9 °C 34428.8 hPa SSE 6 km/h 6 km/h 53 % 0 mm
23:15 -10.8 °C -15.9 °C 34428.8 hPa ESE 9 km/h 9 km/h 53 % 0 mm
23:16 -10.7 °C -15.9 °C 34428.8 hPa South 9 km/h 9 km/h 53 % 0 mm
23:21 -10.8 °C -15.9 °C 34428.8 hPa WSW 6 km/h 6 km/h 53 % 0 mm
23:22 -10.8 °C -15.9 °C 34428.8 hPa SSE 6 km/h 6 km/h 53 % 0 mm
23:25 -13.3 °C -18.5 °C 34601.5 hPa West 15.6 km/h 15.6 km/h 52 % 0 mm
23:27 -10.8 °C -15.9 °C 34462.7 hPa West 15 km/h 15 km/h 53 % 0 mm
23:29 -10.8 °C -15.9 °C 34462.7 hPa WNW 6.8 km/h 6.8 km/h 53 % 0 mm
23:33 -10.8 °C -15.8 °C 34462.7 hPa West 15 km/h 15 km/h 54 % 0 mm
23:35 -13.4 °C -18.6 °C 34635.4 hPa West 12.9 km/h 15.6 km/h 52 % 0 mm
23:38 -10.8 °C -15.8 °C 34462.7 hPa WSW 19.6 km/h 19.6 km/h 54 % 0 mm
23:40 -10.8 °C -15.8 °C 34462.7 hPa WSW 15 km/h 15 km/h 54 % 0 mm
23:45 -10.8 °C -15.8 °C 34462.7 hPa NW 11.9 km/h 11.9 km/h 54 % 0 mm
23:46 -10.8 °C -15.8 °C 34462.7 hPa NW 11.9 km/h 11.9 km/h 54 % 0 mm
23:51 -10.8 °C -15.8 °C 34462.7 hPa WNW 6.8 km/h 6.8 km/h 54 % 0 mm
23:53 -10.8 °C -15.7 °C 34462.7 hPa West 6 km/h 6 km/h 55 % 0 mm
23:55 -13.3 °C -18.5 °C 34635.4 hPa West 15.6 km/h 23.3 km/h 52 % 0 mm
23:57 -10.9 °C -15.8 °C 34462.7 hPa South 2.3 km/h   55 % 0 mm
23:58 -10.9 °C -15.8 °C 34462.7 hPa South 3.1 km/h   55 % 0 mm
Meteo Sesrovires
Elogis d' Weather Underground - 2 mb

Guio original per  Jim McMurry - jmcmurry@mwt.net Adaptat per a la plantilla per  Wim van der Kuil - Leuven-Template.eu

Trobareu la nostra informacio del temps tambe a:

Weather Underground

AWEKAS